Time;durP1;ratioP1;P1;durP2;ratioP2;P2;SDS_P1;SDS_P2;PMS_P1;PMS_P2;Temp;Humidity;BMP_temperature;BMP_pressure;BME280_temperature;BME280_humidity;BME280_pressure;Samples;Min_cycle;Max_cycle;Signal;HPM_P1;HPM_P2
2023/07/30 00:02:18;;;;;;;;;;;;;;;29.23;41.20;94097.63;4895212;29;7867;-63
2023/07/30 00:04:45;;;;;;;;;;;;;;;29.21;41.57;94100.94;4921561;29;7005;-64
2023/07/30 00:07:12;;;;;;;;;;;;;;;29.20;41.18;94093.16;4905676;29;7163;-64
2023/07/30 00:09:39;;;;;;;;;;;;;;;29.21;41.73;94094.66;4909760;29;7000;-63
2023/07/30 00:12:07;;;;;;;;;;;;;;;29.19;41.50;94092.41;4904962;29;8178;-63
2023/07/30 00:14:40;;;;;;;;;;;;;;;29.18;41.04;94095.75;4933576;28;7368;-63
2023/07/30 00:17:36;;;;;;;;;;;;;;;29.17;42.08;94095.00;4971053;28;7193;-63
2023/07/30 00:20:07;;;;;;;;;;;;;;;29.17;41.01;94095.00;4950294;28;7144;-63
2023/07/30 00:22:34;;;;;;;;;;;;;;;29.17;41.24;94091.50;4952945;28;7214;-63
2023/07/30 00:25:04;;;;;;;;;;;;;;;29.16;42.06;94089.97;5067590;28;7400;-63
2023/07/30 00:27:33;;;;;;;;;;;;;;;29.18;41.25;94090.19;5035873;28;7037;-63
2023/07/30 00:29:59;;;;;;;;;;;;;;;29.18;41.46;94101.28;5069295;28;7123;-63
2023/07/30 00:32:27;;;;;;;;;;;;;;;29.17;41.44;94094.25;5037246;28;7254;-63
2023/07/30 00:34:58;;;;;;;;;;;;;;;29.17;41.51;94099.81;5055917;28;6985;-63
2023/07/30 00:37:24;;;;;;;;;;;;;;;29.17;41.86;94097.03;5041000;28;7230;-63
2023/07/30 00:39:53;;;;;;;;;;;;;;;29.12;41.43;94112.47;5030637;28;8209;-63
2023/07/30 00:42:37;;;;;;;;;;;;;;;29.15;41.09;94114.16;5054288;28;9047;-64
2023/07/30 00:45:12;;;;;;;;;;;;;;;29.13;41.35;94113.94;5031303;28;7057;-56
2023/07/30 00:47:47;;;;;;;;;;;;;;;29.13;41.61;94127.78;5040133;28;7179;-55
2023/07/30 00:50:19;;;;;;;;;;;;;;;29.12;41.45;94120.03;5070942;28;7033;-55
2023/07/30 00:52:53;;;;;;;;;;;;;;;29.08;41.55;94121.09;5062813;28;7109;-55
2023/07/30 00:55:24;;;;;;;;;;;;;;;29.04;41.62;94109.63;5049375;28;9476;-55
2023/07/30 00:58:03;;;;;;;;;;;;;;;29.03;41.83;94118.47;5053677;28;7223;-55
2023/07/30 01:00:34;;;;;;;;;;;;;;;29.05;41.89;94133.28;5041419;28;8533;-55
2023/07/30 01:03:03;;;;;;;;;;;;;;;29.07;41.38;94150.09;5028053;28;7271;-55
2023/07/30 01:05:33;;;;;;;;;;;;;;;29.09;41.65;94149.53;5070761;28;7240;-55
2023/07/30 01:08:13;;;;;;;;;;;;;;;29.10;41.42;94159.34;5021022;28;9222;-55
2023/07/30 01:11:17;;;;;;;;;;;;;;;29.09;41.32;94160.63;5030779;28;7935;-55
2023/07/30 01:13:47;;;;;;;;;;;;;;;29.07;41.40;94152.88;5047803;28;7198;-55
2023/07/30 01:16:13;;;;;;;;;;;;;;;29.06;41.50;94156.16;5048918;28;7342;-55
2023/07/30 01:18:40;;;;;;;;;;;;;;;29.07;41.29;94155.63;5068487;28;6926;-55
2023/07/30 01:21:16;;;;;;;;;;;;;;;29.08;41.74;94153.59;5033251;28;7313;-55
2023/07/30 01:24:09;;;;;;;;;;;;;;;29.07;41.22;94138.28;5062846;28;7446;-55
2023/07/30 01:26:56;;;;;;;;;;;;;;;29.06;41.53;94139.53;5036194;28;7236;-55
2023/07/30 01:29:48;;;;;;;;;;;;;;;29.05;41.08;94133.28;5026557;28;7279;-55
2023/07/30 01:32:32;;;;;;;;;;;;;;;29.08;41.33;94139.75;5035992;28;7113;-55
2023/07/30 01:35:13;;;;;;;;;;;;;;;29.06;41.20;94134.00;5069985;28;7246;-55
2023/07/30 01:37:44;;;;;;;;;;;;;;;29.06;41.88;94126.44;5034704;28;7074;-55
2023/07/30 01:40:20;;;;;;;;;;;;;;;29.07;41.84;94141.78;5053968;28;8938;-55
2023/07/30 01:42:46;;;;;;;;;;;;;;;29.07;41.32;94125.16;5028953;28;9096;-55
2023/07/30 01:45:34;;;;;;;;;;;;;;;29.06;42.07;94122.94;5035913;28;8963;-55
2023/07/30 01:48:01;;;;;;;;;;;;;;;29.03;41.03;94124.03;5069261;28;7159;-55
2023/07/30 01:50:28;;;;;;;;;;;;;;;29.05;40.90;94124.22;5035553;28;7005;-55
2023/07/30 01:52:57;;;;;;;;;;;;;;;29.06;41.08;94114.63;5040667;28;7201;-55
2023/07/30 01:55:31;;;;;;;;;;;;;;;29.03;42.06;94113.69;5034982;28;7223;-63
2023/07/30 01:57:59;;;;;;;;;;;;;;;29.04;41.17;94104.09;5066832;28;8934;-63
2023/07/30 02:00:32;;;;;;;;;;;;;;;29.06;41.19;94109.06;5064058;28;7266;-63
2023/07/30 02:03:14;;;;;;;;;;;;;;;29.05;41.15;94116.66;5050366;28;7244;-63
2023/07/30 02:06:18;;;;;;;;;;;;;;;29.04;40.91;94100.56;5023151;28;7234;-63
2023/07/30 02:09:10;;;;;;;;;;;;;;;29.05;41.32;94104.84;4967228;28;8663;-63
2023/07/30 02:11:37;;;;;;;;;;;;;;;29.05;41.88;94102.06;4971745;28;9051;-63
2023/07/30 02:14:26;;;;;;;;;;;;;;;29.03;41.30;94108.16;4965247;28;7197;-63
2023/07/30 02:17:04;;;;;;;;;;;;;;;29.03;40.85;94105.38;4971296;28;7227;-63
2023/07/30 02:19:49;;;;;;;;;;;;;;;29.01;41.08;94096.84;4976162;28;8995;-63
2023/07/30 02:22:44;;;;;;;;;;;;;;;29.01;41.17;94102.38;4970393;28;9047;-63
2023/07/30 02:25:29;;;;;;;;;;;;;;;29.01;41.67;94101.66;4900160;29;7172;-63
2023/07/30 02:27:58;;;;;;;;;;;;;;;29.01;41.82;94109.97;4916370;29;6995;-63
2023/07/30 02:30:24;;;;;;;;;;;;;;;29.00;41.83;94108.47;4898313;29;8243;-63
2023/07/30 02:33:22;;;;;;;;;;;;;;;29.00;41.41;94097.41;4917121;29;9721;-63
2023/07/30 02:35:51;;;;;;;;;;;;;;;28.99;41.42;94107.00;4846461;29;7275;-63
2023/07/30 02:38:28;;;;;;;;;;;;;;;28.98;40.92;94108.28;4848063;29;8952;-63
2023/07/30 02:40:54;;;;;;;;;;;;;;;28.98;41.21;94106.25;4855311;29;7210;-63
2023/07/30 02:43:20;;;;;;;;;;;;;;;28.96;41.27;94106.06;4886232;29;7210;-63
2023/07/30 02:45:58;;;;;;;;;;;;;;;28.99;41.70;94116.03;4895530;29;7248;-63
2023/07/30 02:48:37;;;;;;;;;;;;;;;28.97;41.88;94107.53;4896311;29;7283;-63
2023/07/30 02:51:20;;;;;;;;;;;;;;;28.97;41.61;94115.84;4895321;29;6985;-63
2023/07/30 02:54:07;;;;;;;;;;;;;;;28.96;41.49;94117.13;4889915;29;8776;-64
2023/07/30 02:56:33;;;;;;;;;;;;;;;28.98;41.77;94128.41;4878806;29;7195;-63
2023/07/30 02:59:40;;;;;;;;;;;;;;;28.99;41.92;94129.88;4880612;29;7248;-63
2023/07/30 03:02:10;;;;;;;;;;;;;;;28.97;41.56;94120.66;4948722;28;7548;-63
2023/07/30 03:04:45;;;;;;;;;;;;;;;28.96;41.64;94121.91;4992062;28;9050;-61
2023/07/30 03:07:11;;;;;;;;;;;;;;;28.94;41.28;94122.47;4991387;28;7250;-61
2023/07/30 03:09:56;;;;;;;;;;;;;;;28.95;41.79;94115.63;4975472;28;7237;-61
2023/07/30 03:12:23;;;;;;;;;;;;;;;28.93;41.57;94104.34;5019710;28;7188;-61
2023/07/30 03:14:49;;;;;;;;;;;;;;;28.97;40.97;94121.38;5062533;28;7322;-61
2023/07/30 03:17:16;;;;;;;;;;;;;;;28.96;41.60;94122.66;5033143;28;7370;-61
2023/07/30 03:19:42;;;;;;;;;;;;;;;28.96;41.37;94119.91;5032754;28;7108;-62
2023/07/30 03:22:07;;;;;;;;;;;;;;;28.91;41.18;94117.25;5040868;28;9060;-61
2023/07/30 03:24:33;;;;;;;;;;;;;;;28.92;41.14;94122.25;5032998;28;7265;-61
2023/07/30 03:27:01;;;;;;;;;;;;;;;28.92;41.74;94125.03;5067468;28;7181;-61
2023/07/30 03:29:32;;;;;;;;;;;;;;;28.95;40.96;94118.41;5067483;28;7006;-61
2023/07/30 03:32:32;;;;;;;;;;;;;;;28.96;41.11;94127.47;5048569;28;7259;-61
2023/07/30 03:35:18;;;;;;;;;;;;;;;28.95;41.68;94128.72;5042574;28;7292;-61
2023/07/30 03:38:14;;;;;;;;;;;;;;;28.97;41.35;94134.50;5037140;28;7240;-62
2023/07/30 03:40:49;;;;;;;;;;;;;;;28.95;41.02;94132.25;4979386;28;9258;-62
2023/07/30 03:43:23;;;;;;;;;;;;;;;28.93;40.91;94126.50;4971236;28;7246;-61
2023/07/30 03:45:51;;;;;;;;;;;;;;;28.94;41.48;94122.47;4962181;28;9526;-61
2023/07/30 03:48:52;;;;;;;;;;;;;;;28.95;41.24;94129.47;4965277;28;7272;-62
2023/07/30 03:51:18;;;;;;;;;;;;;;;28.95;41.06;94129.47;4935762;29;9304;-61
2023/07/30 03:53:56;;;;;;;;;;;;;;;28.90;41.33;94126.84;4952147;29;7080;-61
2023/07/30 03:57:01;;;;;;;;;;;;;;;28.92;41.70;94130.56;4931650;29;9650;-62
2023/07/30 04:00:09;;;;;;;;;;;;;;;28.90;41.44;94135.91;4897732;29;9131;-62
2023/07/30 04:02:49;;;;;;;;;;;;;;;28.90;41.34;94132.38;4898690;29;7549;-61
2023/07/30 04:05:35;;;;;;;;;;;;;;;28.89;41.02;94134.41;4913522;29;9535;-61
2023/07/30 04:08:03;;;;;;;;;;;;;;;28.92;41.12;94141.66;4898513;29;7436;-61
2023/07/30 04:10:41;;;;;;;;;;;;;;;28.91;40.98;94140.16;4899058;29;9043;-61
2023/07/30 04:13:27;;;;;;;;;;;;;;;28.90;41.29;94133.13;4898046;29;7132;-61
2023/07/30 04:15:55;;;;;;;;;;;;;;;28.89;41.84;94136.44;4898205;29;9053;-62
2023/07/30 04:18:22;;;;;;;;;;;;;;;28.88;40.86;94141.22;4947310;28;7187;-62
2023/07/30 04:20:57;;;;;;;;;;;;;;;28.86;41.51;94137.53;4955347;28;7319;-62
2023/07/30 04:23:35;;;;;;;;;;;;;;;28.88;41.37;94134.94;4955618;28;7447;-62
2023/07/30 04:26:05;;;;;;;;;;;;;;;28.85;41.50;94131.22;4966514;28;7180;-62
2023/07/30 04:28:32;;;;;;;;;;;;;;;28.87;41.39;94139.75;4964221;28;7186;-61
2023/07/30 04:30:58;;;;;;;;;;;;;;;28.87;41.55;94150.81;4989733;28;7071;-61
2023/07/30 04:33:26;;;;;;;;;;;;;;;28.85;41.49;94142.31;5004984;28;7307;-61
2023/07/30 04:35:54;;;;;;;;;;;;;;;28.86;41.62;94152.09;5025861;28;8885;-61
2023/07/30 04:38:32;;;;;;;;;;;;;;;28.86;41.62;94151.38;5032956;28;7279;-61
2023/07/30 04:41:04;;;;;;;;;;;;;;;28.83;40.97;94153.19;5066026;28;8476;-61
2023/07/30 04:44:02;;;;;;;;;;;;;;;28.81;40.96;94147.44;5038253;28;8561;-61
2023/07/30 04:46:30;;;;;;;;;;;;;;;28.83;41.62;94158.72;5012738;28;7278;-61
2023/07/30 04:49:06;;;;;;;;;;;;;;;28.82;41.97;94150.94;4996518;28;7185;-61
2023/07/30 04:51:44;;;;;;;;;;;;;;;28.86;41.39;94156.91;5012037;28;7534;-61
2023/07/30 04:54:29;;;;;;;;;;;;;;;28.88;40.99;94160.59;4993856;28;6998;-61
2023/07/30 04:56:57;;;;;;;;;;;;;;;28.87;41.04;94153.59;5008808;28;9285;-61
2023/07/30 04:59:58;;;;;;;;;;;;;;;28.90;40.90;94160.06;5003185;28;7093;-61
2023/07/30 05:02:25;;;;;;;;;;;;;;;28.87;41.40;94155.59;4996742;28;7249;-61
2023/07/30 05:05:05;;;;;;;;;;;;;;;28.88;40.94;94157.09;5013127;28;7175;-61
2023/07/30 05:07:41;;;;;;;;;;;;;;;28.87;41.22;94161.13;4996001;28;7311;-62
2023/07/30 05:10:28;;;;;;;;;;;;;;;28.88;41.69;94157.81;5012203;28;9778;-61
2023/07/30 05:13:22;;;;;;;;;;;;;;;28.86;41.40;94171.47;5005550;28;7412;-61
2023/07/30 05:16:01;;;;;;;;;;;;;;;28.86;41.08;94176.28;5003786;28;8723;-61
2023/07/30 05:18:50;;;;;;;;;;;;;;;28.85;41.39;94175.53;5008649;28;9081;-62
2023/07/30 05:21:22;;;;;;;;;;;;;;;28.84;41.73;94179.56;5016314;28;7024;-61
2023/07/30 05:24:07;;;;;;;;;;;;;;;28.85;41.04;94174.78;5043972;28;6973;-61
2023/07/30 05:26:41;;;;;;;;;;;;;;;28.86;42.26;94176.28;5044133;28;7119;-62
2023/07/30 05:29:14;;;;;;;;;;;;;;;28.81;41.57;94174.38;5038316;28;8635;-63
2023/07/30 05:31:41;;;;;;;;;;;;;;;28.81;41.50;94175.13;5018123;28;7189;-63
2023/07/30 05:34:07;;;;;;;;;;;;;;;28.83;41.29;94178.09;5048217;28;7503;-63
2023/07/30 05:36:47;;;;;;;;;;;;;;;28.85;41.46;94185.84;5034063;28;7246;-63
2023/07/30 05:39:22;;;;;;;;;;;;;;;28.84;41.12;94184.38;5064689;28;7087;-63
2023/07/30 05:42:04;;;;;;;;;;;;;;;28.83;41.53;94186.41;5068585;28;7068;-62
2023/07/30 05:44:38;;;;;;;;;;;;;;;28.83;41.42;94182.88;5034142;28;9092;-62
2023/07/30 05:47:05;;;;;;;;;;;;;;;28.81;41.84;94194.50;5035292;28;7218;-62
2023/07/30 05:49:35;;;;;;;;;;;;;;;28.78;41.91;94197.56;5029951;28;6983;-62
2023/07/30 05:52:01;;;;;;;;;;;;;;;28.80;41.58;94201.31;5067597;28;7008;-62
2023/07/30 05:54:28;;;;;;;;;;;;;;;28.81;41.21;94199.28;5067912;28;7244;-63
2023/07/30 05:57:05;;;;;;;;;;;;;;;28.81;41.79;94197.25;5067908;28;7340;-62
2023/07/30 05:59:41;;;;;;;;;;;;;;;28.75;41.37;94190.38;5034993;28;7241;-62
2023/07/30 06:02:08;;;;;;;;;;;;;;;28.77;41.63;94193.34;5032683;28;9093;-64
2023/07/30 06:04:40;;;;;;;;;;;;;;;28.74;41.66;94181.31;5026929;28;9055;-62
2023/07/30 06:07:22;;;;;;;;;;;;;;;28.72;41.60;94194.19;5045637;28;6921;-62
2023/07/30 06:09:54;;;;;;;;;;;;;;;28.76;41.68;94200.13;5035143;28;7254;-62
2023/07/30 06:12:33;;;;;;;;;;;;;;;28.76;41.53;94203.66;5033287;28;7394;-62
2023/07/30 06:15:38;;;;;;;;;;;;;;;28.76;41.90;94194.59;5046123;28;7260;-62
2023/07/30 06:18:37;;;;;;;;;;;;;;;28.77;41.98;94193.34;5030123;28;7213;-63
2023/07/30 06:21:16;;;;;;;;;;;;;;;28.79;42.24;94190.78;4942338;28;9062;-62
2023/07/30 06:23:58;;;;;;;;;;;;;;;28.80;42.48;94193.00;4969119;28;9376;-62
2023/07/30 06:26:31;;;;;;;;;;;;;;;28.80;41.83;94201.31;4950891;28;7062;-62
2023/07/30 06:29:03;;;;;;;;;;;;;;;28.80;42.13;94203.31;4945955;28;7358;-62
2023/07/30 06:31:30;;;;;;;;;;;;;;;28.79;42.25;94204.63;4952389;28;7268;-62
2023/07/30 06:33:59;;;;;;;;;;;;;;;28.80;41.81;94201.31;4952609;28;7239;-63
2023/07/30 06:36:40;;;;;;;;;;;;;;;28.82;41.80;94215.34;4949828;28;7498;-61
2023/07/30 06:39:09;;;;;;;;;;;;;;;28.83;41.49;94210.56;4968189;28;7149;-62
2023/07/30 06:41:46;;;;;;;;;;;;;;;28.82;41.67;94220.88;4962600;28;9117;-62
2023/07/30 06:44:28;;;;;;;;;;;;;;;28.84;41.79;94218.31;4946881;28;7365;-62
2023/07/30 06:46:54;;;;;;;;;;;;;;;28.84;41.43;94229.41;4963239;28;7246;-63
2023/07/30 06:49:24;;;;;;;;;;;;;;;28.85;42.12;94230.16;4956511;28;9016;-62
2023/07/30 06:52:00;;;;;;;;;;;;;;;28.85;42.24;94230.16;4967728;28;9088;-62
2023/07/30 06:54:37;;;;;;;;;;;;;;;28.85;42.23;94233.66;4955634;28;7257;-61
2023/07/30 06:57:24;;;;;;;;;;;;;;;28.77;42.22;94243.91;4981941;28;7820;-61
2023/07/30 07:00:10;;;;;;;;;;;;;;;28.86;42.17;94251.03;5045810;28;7196;-62
2023/07/30 07:02:42;;;;;;;;;;;;;;;28.89;42.68;94242.38;5061422;28;7211;-61
2023/07/30 07:05:19;;;;;;;;;;;;;;;28.92;42.46;94238.56;5063668;28;7174;-62
2023/07/30 07:07:53;;;;;;;;;;;;;;;29.06;42.17;94242.75;5033324;28;7211;-61
2023/07/30 07:10:32;;;;;;;;;;;;;;;29.22;43.08;94242.94;5034105;28;8988;-63
2023/07/30 07:13:45;;;;;;;;;;;;;;;29.28;42.26;94247.06;5046847;28;9199;-62
2023/07/30 07:16:44;;;;;;;;;;;;;;;29.29;41.43;94256.13;4984615;28;9176;-61
2023/07/30 07:19:26;;;;;;;;;;;;;;;29.19;41.89;94246.81;4988132;28;7172;-61
2023/07/30 07:22:03;;;;;;;;;;;;;;;29.16;41.73;94251.41;4983924;28;7241;-61
2023/07/30 07:24:32;;;;;;;;;;;;;;;29.18;41.82;94256.38;5000598;28;7361;-62
2023/07/30 07:26:58;;;;;;;;;;;;;;;29.18;41.68;94242.53;4991537;28;7407;-61
2023/07/30 07:29:45;;;;;;;;;;;;;;;29.19;41.26;94252.34;5003699;28;8147;-62
2023/07/30 07:32:18;;;;;;;;;;;;;;;29.15;41.92;94249.88;4996277;28;9104;-61
2023/07/30 07:35:03;;;;;;;;;;;;;;;29.17;41.68;94252.88;5001955;28;7255;-62
2023/07/30 07:38:04;;;;;;;;;;;;;;;29.17;42.41;94255.63;4983764;28;7248;-62
2023/07/30 07:40:40;;;;;;;;;;;;;;;29.15;41.92;94246.34;4962562;28;7089;-62
2023/07/30 07:43:23;;;;;;;;;;;;;;;29.13;41.46;94249.66;4966840;28;7292;-61
2023/07/30 07:45:50;;;;;;;;;;;;;;;29.14;41.21;94242.84;4970684;28;7235;-54
2023/07/30 07:48:16;;;;;;;;;;;;;;;29.13;41.54;94238.59;4970355;28;9072;-55
2023/07/30 07:50:57;;;;;;;;;;;;;;;29.13;42.53;94241.34;4970306;28;7634;-55
2023/07/30 07:53:24;;;;;;;;;;;;;;;29.12;41.61;94244.66;4966190;28;9730;-55
2023/07/30 07:55:51;;;;;;;;;;;;;;;29.13;41.86;94237.81;4974787;28;7291;-55
2023/07/30 07:58:31;;;;;;;;;;;;;;;29.15;41.51;94233.25;4952350;28;7131;-55
2023/07/30 08:01:02;;;;;;;;;;;;;;;29.16;41.63;94234.78;4975165;28;8774;-54
2023/07/30 08:03:37;;;;;;;;;;;;;;;29.16;41.85;94236.75;4988906;28;7269;-54
2023/07/30 08:06:05;;;;;;;;;;;;;;;29.16;41.93;94232.00;4977675;28;7164;-54
2023/07/30 08:08:43;;;;;;;;;;;;;;;29.16;41.81;94232.00;4977952;28;6959;-54
2023/07/30 08:11:20;;;;;;;;;;;;;;;29.17;42.35;94232.75;4956367;28;8030;-54
2023/07/30 08:14:03;;;;;;;;;;;;;;;29.14;42.12;94226.22;4984944;28;7008;-55
2023/07/30 08:16:38;;;;;;;;;;;;;;;29.17;42.16;94224.44;5051778;28;7918;-55
2023/07/30 08:19:14;;;;;;;;;;;;;;;29.13;42.59;94219.19;5056435;28;9087;-55
2023/07/30 08:22:12;;;;;;;;;;;;;;;29.18;42.23;94228.69;5028727;28;7009;-54
2023/07/30 08:25:11;;;;;;;;;;;;;;;29.18;42.37;94225.91;5053641;28;7156;-54
2023/07/30 08:27:37;;;;;;;;;;;;;;;29.18;42.59;94226.66;5018615;28;9212;-54
2023/07/30 08:30:16;;;;;;;;;;;;;;;29.15;41.84;94224.19;4997144;28;7270;-54
2023/07/30 08:33:33;;;;;;;;;;;;;;;29.17;41.89;94222.41;5002331;28;6994;-54
2023/07/30 08:36:07;;;;;;;;;;;;;;;29.19;42.21;94219.09;4930694;29;7038;-54
2023/07/30 08:38:52;;;;;;;;;;;;;;;29.18;42.89;94217.59;4940984;28;9215;-54
2023/07/30 08:41:31;;;;;;;;;;;;;;;29.16;42.59;94220.16;4931670;28;7078;-55
2023/07/30 08:44:08;;;;;;;;;;;;;;;29.18;42.54;94223.16;4915584;29;7198;-55
2023/07/30 08:46:36;;;;;;;;;;;;;;;29.17;42.41;94229.97;4927506;29;7335;-54
2023/07/30 08:49:04;;;;;;;;;;;;;;;29.17;42.06;94230.72;4932050;29;8342;-55
2023/07/30 08:51:42;;;;;;;;;;;;;;;29.16;42.92;94220.16;4936537;28;7114;-55
2023/07/30 08:54:23;;;;;;;;;;;;;;;29.16;41.75;94232.00;4932994;29;8938;-55
2023/07/30 08:57:08;;;;;;;;;;;;;;;29.15;42.13;94230.47;4933265;28;9128;-63
2023/07/30 09:00:00;;;;;;;;;;;;;;;29.15;42.68;94236.00;4926691;28;7141;-63
2023/07/30 09:02:54;;;;;;;;;;;;;;;29.14;42.39;94239.34;4937388;28;9355;-64
2023/07/30 09:05:23;;;;;;;;;;;;;;;29.12;42.13;94236.34;4972507;28;7200;-64
2023/07/30 09:07:58;;;;;;;;;;;;;;;29.14;42.28;94237.31;4982553;28;8424;-64
2023/07/30 09:10:26;;;;;;;;;;;;;;;29.15;42.21;94238.03;4970869;28;7069;-64
2023/07/30 09:13:03;;;;;;;;;;;;;;;29.14;42.61;94237.31;5007874;28;9091;-64
2023/07/30 09:15:42;;;;;;;;;;;;;;;29.13;42.20;94232.28;5036576;28;7276;-64
2023/07/30 09:18:08;;;;;;;;;;;;;;;29.14;42.14;94237.31;5069534;28;7538;-64
2023/07/30 09:20:43;;;;;;;;;;;;;;;29.13;42.70;94240.59;5070079;28;7172;-64
2023/07/30 09:23:11;;;;;;;;;;;;;;;29.10;42.73;94234.84;5035463;28;7203;-64
2023/07/30 09:25:38;;;;;;;;;;;;;;;29.13;41.86;94246.13;5053109;28;7194;-64
2023/07/30 09:28:08;;;;;;;;;;;;;;;29.11;42.32;94246.69;5068589;28;7294;-64
2023/07/30 09:30:37;;;;;;;;;;;;;;;29.10;41.67;94251.47;5026801;28;7319;-64
2023/07/30 09:33:05;;;;;;;;;;;;;;;29.12;42.22;94253.72;5051277;28;7321;-64
2023/07/30 09:35:39;;;;;;;;;;;;;;;29.10;42.32;94251.47;5034106;28;7302;-64
2023/07/30 09:38:20;;;;;;;;;;;;;;;29.07;42.33;94260.88;5049329;28;7392;-64
2023/07/30 09:41:17;;;;;;;;;;;;;;;29.12;42.37;94272.38;5052483;28;7230;-64
2023/07/30 09:43:58;;;;;;;;;;;;;;;29.13;41.90;94277.34;4996391;28;6984;-64
2023/07/30 09:46:48;;;;;;;;;;;;;;;29.13;42.18;94271.06;5007700;28;7006;-64
2023/07/30 09:49:17;;;;;;;;;;;;;;;29.15;42.59;94280.31;5019621;28;7085;-64
2023/07/30 09:52:09;;;;;;;;;;;;;;;29.16;41.90;94281.06;5001618;28;8221;-64
2023/07/30 09:54:38;;;;;;;;;;;;;;;29.14;41.97;94276.09;5012912;28;7236;-64
2023/07/30 09:57:29;;;;;;;;;;;;;;;29.13;42.17;94273.84;5002652;28;7267;-64
2023/07/30 09:59:55;;;;;;;;;;;;;;;29.14;41.92;94276.09;4995786;28;8768;-64
2023/07/30 10:02:39;;;;;;;;;;;;;;;29.14;41.56;94269.78;5012145;28;9076;-64
2023/07/30 10:05:14;;;;;;;;;;;;;;;29.12;41.46;94275.88;5012229;28;6975;-60
2023/07/30 10:07:48;;;;;;;;;;;;;;;29.13;41.04;94266.28;5009834;28;7039;-60
2023/07/30 10:10:29;;;;;;;;;;;;;;;29.11;41.70;94291.00;5012511;28;7171;-60
2023/07/30 10:13:33;;;;;;;;;;;;;;;29.12;41.89;94297.28;5002974;28;7822;-60
2023/07/30 10:15:59;;;;;;;;;;;;;;;29.10;41.72;94295.78;4948824;28;7260;-60
2023/07/30 10:18:57;;;;;;;;;;;;;;;29.11;41.31;94310.38;4949044;28;7318;-60
2023/07/30 10:21:42;;;;;;;;;;;;;;;29.12;42.08;94305.59;4949128;28;9083;-61
2023/07/30 10:24:18;;;;;;;;;;;;;;;29.13;42.03;94307.81;4994327;28;7056;-60
2023/07/30 10:26:45;;;;;;;;;;;;;;;29.13;41.95;94309.84;4965831;28;9479;-60
2023/07/30 10:29:27;;;;;;;;;;;;;;;29.13;42.09;94310.59;4975945;28;7276;-60
2023/07/30 10:32:11;;;;;;;;;;;;;;;29.13;41.95;94304.31;4978486;28;7208;-59
2023/07/30 10:34:57;;;;;;;;;;;;;;;29.16;41.77;94308.78;5000184;28;8841;-60
2023/07/30 10:37:46;;;;;;;;;;;;;;;29.16;41.59;94297.69;4990934;28;9506;-60
2023/07/30 10:40:18;;;;;;;;;;;;;;;29.13;41.93;94280.13;4969552;28;9088;-60
2023/07/30 10:42:54;;;;;;;;;;;;;;;29.15;41.46;94282.34;4961648;28;6987;-59
2023/07/30 10:45:25;;;;;;;;;;;;;;;29.21;41.82;94291.34;4956443;28;7179;-60
2023/07/30 10:48:08;;;;;;;;;;;;;;;29.20;41.07;94292.59;4987699;28;7274;-60
2023/07/30 10:50:37;;;;;;;;;;;;;;;29.24;41.34;94304.09;5029675;28;9071;-60
2023/07/30 10:53:11;;;;;;;;;;;;;;;29.23;41.10;94302.63;5067852;28;9764;-60
2023/07/30 10:59:24;;;;;;;;;;;;;;;29.27;41.40;94300.25;5044726;28;9630;-60
2023/07/30 11:01:53;;;;;;;;;;;;;;;29.25;41.76;94298.03;5059693;28;7326;-60
2023/07/30 11:04:23;;;;;;;;;;;;;;;29.23;41.11;94297.06;5044035;28;8942;-60
2023/07/30 11:07:05;;;;;;;;;;;;;;;29.24;41.70;94296.53;5042699;28;7007;-59
2023/07/30 11:09:32;;;;;;;;;;;;;;;29.23;41.79;94297.06;5035333;28;7020;-60
2023/07/30 11:12:09;;;;;;;;;;;;;;;29.26;41.58;94293.22;5049955;28;7236;-60
2023/07/30 11:14:37;;;;;;;;;;;;;;;29.26;41.78;94290.44;5026359;28;7017;-63
2023/07/30 11:17:05;;;;;;;;;;;;;;;29.24;41.66;94295.78;5048873;28;7195;-63
2023/07/30 11:19:34;;;;;;;;;;;;;;;29.26;41.38;94298.75;5037671;28;8714;-63
2023/07/30 11:22:09;;;;;;;;;;;;;;;29.26;41.69;94302.28;5049500;28;7260;-63
2023/07/30 11:25:17;;;;;;;;;;;;;;;29.28;41.11;94298.97;5043804;28;8972;-63
2023/07/30 11:28:02;;;;;;;;;;;;;;;29.28;41.09;94296.94;5049806;28;10071;-64
2023/07/30 11:30:37;;;;;;;;;;;;;;;29.30;40.94;94299.16;5020105;28;7286;-64
2023/07/30 11:33:25;;;;;;;;;;;;;;;29.31;41.80;94306.22;5056080;28;8628;-64
2023/07/30 11:35:59;;;;;;;;;;;;;;;29.27;41.61;94292.69;5035424;28;7490;-64
2023/07/30 11:38:40;;;;;;;;;;;;;;;29.31;41.61;94292.34;5045401;28;7164;-64
2023/07/30 11:41:09;;;;;;;;;;;;;;;29.26;41.77;94295.97;5047621;28;7175;-63
2023/07/30 11:43:39;;;;;;;;;;;;;;;29.30;42.03;94297.16;5035480;28;7254;-64
2023/07/30 11:46:11;;;;;;;;;;;;;;;29.31;41.44;94295.13;5072773;28;7002;-64
2023/07/30 11:48:53;;;;;;;;;;;;;;;29.32;41.38;94291.09;5045817;28;9077;-64
2023/07/30 11:51:25;;;;;;;;;;;;;;;29.32;40.90;94282.78;5051502;28;7442;-64
2023/07/30 11:54:25;;;;;;;;;;;;;;;29.34;41.52;94289.25;5054106;28;7588;-64
2023/07/30 12:01:11;;;;;;;;;;;;;;;29.34;41.54;94313.44;5047245;28;7236;-63
2023/07/30 12:04:28;;;;;;;;;;;;;;;29.32;41.05;94293.84;5063701;28;7253;-63
2023/07/30 12:07:29;;;;;;;;;;;;;;;29.31;41.84;94300.66;5051807;28;7240;-63
2023/07/30 12:10:11;;;;;;;;;;;;;;;29.30;41.80;94301.94;5049666;28;8078;-63
2023/07/30 12:13:29;;;;;;;;;;;;;;;29.31;41.09;94297.91;5042602;28;8898;-63
2023/07/30 12:16:04;;;;;;;;;;;;;;;29.30;41.63;94299.91;5023795;28;7893;-63
2023/07/30 12:18:30;;;;;;;;;;;;;;;29.34;42.01;94285.75;5035641;28;7222;-63
2023/07/30 12:21:07;;;;;;;;;;;;;;;29.35;41.43;94285.19;5017518;28;7304;-63
2023/07/30 12:23:43;;;;;;;;;;;;;;;29.34;41.85;94291.28;5027336;28;9116;-63
2023/07/30 12:26:11;;;;;;;;;;;;;;;29.35;41.78;94293.50;5032348;28;9168;-63
2023/07/30 12:28:56;;;;;;;;;;;;;;;29.36;41.04;94292.22;5026755;28;7213;-63
2023/07/30 12:31:24;;;;;;;;;;;;;;;29.37;41.83;94290.19;5017027;28;8836;-64
2023/07/30 12:33:52;;;;;;;;;;;;;;;29.36;41.62;94288.72;5035050;28;7220;-63
2023/07/30 12:36:34;;;;;;;;;;;;;;;29.37;41.80;94282.63;5016931;28;7185;-64
2023/07/30 12:39:01;;;;;;;;;;;;;;;29.39;41.56;94277.28;5011561;28;7117;-63
2023/07/30 12:41:38;;;;;;;;;;;;;;;29.41;41.62;94285.06;5028087;28;6998;-64
2023/07/30 12:44:14;;;;;;;;;;;;;;;29.43;41.25;94276.94;5015555;28;6999;-63
2023/07/30 12:46:43;;;;;;;;;;;;;;;29.44;41.05;94281.22;5022834;28;9162;-63
2023/07/30 12:49:25;;;;;;;;;;;;;;;29.42;42.30;94269.94;5027599;28;7176;-63
2023/07/30 12:52:00;;;;;;;;;;;;;;;29.44;41.56;94279.19;5014964;28;9034;-64
2023/07/30 12:54:35;;;;;;;;;;;;;;;29.41;41.63;94279.53;5054299;28;9517;-64
2023/07/30 12:57:04;;;;;;;;;;;;;;;29.46;40.92;94273.88;5037043;28;7204;-63
2023/07/30 12:59:38;;;;;;;;;;;;;;;29.45;42.29;94274.41;5055248;28;8732;-64
2023/07/30 13:02:37;;;;;;;;;;;;;;;29.45;41.34;94275.13;5049342;28;9120;-64
2023/07/30 13:05:34;;;;;;;;;;;;;;;29.46;41.46;94262.03;5053486;28;7005;-63
2023/07/30 13:08:07;;;;;;;;;;;;;;;29.49;41.17;94261.69;4994045;28;6867;-64
2023/07/30 13:10:38;;;;;;;;;;;;;;;29.49;41.28;94255.41;5067341;28;7111;-63
2023/07/30 13:13:05;;;;;;;;;;;;;;;29.49;41.64;94252.66;5046313;28;7284;-63
2023/07/30 13:15:47;;;;;;;;;;;;;;;29.50;42.11;94254.13;5071220;28;8249;-63
2023/07/30 13:18:31;;;;;;;;;;;;;;;29.48;42.17;94251.16;5052721;28;9114;-63
2023/07/30 13:21:17;;;;;;;;;;;;;;;29.49;41.20;94260.97;5045355;28;7917;-64
2023/07/30 13:24:10;;;;;;;;;;;;;;;29.50;42.40;94254.88;5037037;28;7246;-63
2023/07/30 13:26:48;;;;;;;;;;;;;;;29.50;41.89;94262.44;5035224;28;9569;-63
2023/07/30 13:29:22;;;;;;;;;;;;;;;29.51;42.21;94253.59;5054005;28;7188;-63
2023/07/30 13:31:48;;;;;;;;;;;;;;;29.52;42.30;94252.31;5033880;28;7383;-64
2023/07/30 13:34:26;;;;;;;;;;;;;;;29.53;42.05;94250.28;5031920;28;7351;-62
2023/07/30 13:36:52;;;;;;;;;;;;;;;29.53;42.33;94255.81;5054093;28;7093;-62
2023/07/30 13:39:18;;;;;;;;;;;;;;;29.54;41.51;94255.28;5036199;28;7277;-63
2023/07/30 13:42:00;;;;;;;;;;;;;;;29.54;41.31;94260.81;5044449;28;9067;-63
2023/07/30 13:44:51;;;;;;;;;;;;;;;29.54;42.58;94252.50;5069215;28;9098;-63
2023/07/30 13:47:31;;;;;;;;;;;;;;;29.54;41.28;94249.72;5040488;28;7582;-63
2023/07/30 13:50:03;;;;;;;;;;;;;;;29.54;42.05;94258.03;5051928;28;7175;-63
2023/07/30 13:52:43;;;;;;;;;;;;;;;29.55;42.72;94261.56;5053047;28;9063;-63
2023/07/30 13:55:27;;;;;;;;;;;;;;;29.57;42.44;94254.19;5054280;28;7254;-62
2023/07/30 13:57:55;;;;;;;;;;;;;;;29.58;42.41;94261.22;5063178;28;7082;-62
2023/07/30 14:00:25;;;;;;;;;;;;;;;29.60;42.40;94257.94;5049576;28;7211;-63